Time;durP1;ratioP1;P1;durP2;ratioP2;P2;SDS_P1;SDS_P2;PMS_P1;PMS_P2;Temp;Humidity;BMP_temperature;BMP_pressure;BME280_temperature;BME280_humidity;BME280_pressure;Samples;Min_cycle;Max_cycle;Signal;HPM_P1;HPM_P2
2023/02/27 00:02:23;;;;;;;4.45;2.35;;;12.80;99.90;;;;;;4901945;29;20674;-70
2023/02/27 00:04:50;;;;;;;5.68;2.88;;;12.80;99.90;;;;;;4917205;29;20055;-74
2023/02/27 00:07:18;;;;;;;5.20;2.63;;;12.80;99.90;;;;;;4920464;29;20044;-75
2023/02/27 00:09:45;;;;;;;5.65;2.58;;;12.80;99.90;;;;;;4938120;29;20062;-74
2023/02/27 00:12:12;;;;;;;3.13;2.70;;;12.80;99.90;;;;;;4944106;29;20046;-69
2023/02/27 00:14:40;;;;;;;5.72;3.40;;;12.70;99.90;;;;;;4924077;29;20078;-74
2023/02/27 00:17:08;;;;;;;4.35;2.70;;;12.60;99.90;;;;;;4921351;29;20508;-69
2023/02/27 00:19:35;;;;;;;6.22;3.10;;;12.40;99.90;;;;;;4921992;29;20500;-68
2023/02/27 00:22:03;;;;;;;5.10;3.00;;;12.20;99.90;;;;;;4909493;29;20091;-73
2023/02/27 00:24:31;;;;;;;5.15;3.13;;;12.10;99.90;;;;;;4932957;29;20074;-71
2023/02/27 00:26:58;;;;;;;4.57;2.30;;;12.10;99.90;;;;;;4913569;29;20039;-71
2023/02/27 00:29:25;;;;;;;4.40;2.83;;;12.10;99.90;;;;;;4920629;29;20058;-74
2023/02/27 00:31:53;;;;;;;5.32;2.63;;;12.10;99.90;;;;;;4905828;29;20054;-71
2023/02/27 00:34:20;;;;;;;3.33;2.40;;;12.10;99.90;;;;;;4949886;29;20415;-72
2023/02/27 00:36:50;;;;;;;3.35;2.40;;;12.20;99.90;;;;;;4932470;29;20031;-69
2023/02/27 00:39:21;;;;;;;2.90;2.50;;;12.30;99.90;;;;;;4923636;29;20508;-73
2023/02/27 00:41:49;;;;;;;2.50;2.30;;;12.30;99.90;;;;;;4938861;29;20039;-74
2023/02/27 00:44:16;;;;;;;2.90;2.40;;;12.40;99.90;;;;;;4923592;29;20047;-70
2023/02/27 00:46:44;;;;;;;3.63;2.40;;;12.30;99.90;;;;;;4921826;29;20058;-72
2023/02/27 00:49:11;;;;;;;2.50;2.30;;;12.40;99.90;;;;;;4904980;29;20452;-71
2023/02/27 00:51:39;;;;;;;4.05;2.60;;;12.50;99.90;;;;;;4920162;29;20115;-71
2023/02/27 00:54:08;;;;;;;2.50;2.30;;;12.50;99.90;;;;;;4917090;29;20043;-71
2023/02/27 00:56:40;;;;;;;3.10;2.60;;;12.60;99.90;;;;;;4911476;29;20052;-70
2023/02/27 00:59:09;;;;;;;3.70;2.50;;;12.50;99.90;;;;;;4920441;29;20067;-68
2023/02/27 01:01:36;;;;;;;2.78;2.50;;;12.50;99.90;;;;;;4915696;29;20059;-70
2023/02/27 01:04:06;;;;;;;3.28;2.53;;;12.50;99.90;;;;;;4937688;29;20050;-70
2023/02/27 01:06:34;;;;;;;4.65;2.70;;;12.40;99.90;;;;;;4916589;29;20418;-74
2023/02/27 01:09:01;;;;;;;4.13;2.70;;;12.20;99.90;;;;;;4936770;29;20066;-73
2023/02/27 01:11:29;;;;;;;3.58;2.75;;;12.10;99.90;;;;;;4936495;29;20043;-73
2023/02/27 01:13:56;;;;;;;4.63;2.50;;;12.10;99.90;;;;;;4943126;29;20066;-72
2023/02/27 01:16:23;;;;;;;4.30;2.60;;;12.10;99.90;;;;;;4955180;29;20035;-70
2023/02/27 01:18:54;;;;;;;4.90;2.90;;;12.20;99.90;;;;;;4921746;29;20047;-69
2023/02/27 01:21:23;;;;;;;4.40;2.40;;;12.30;99.90;;;;;;4921788;29;20055;-70
2023/02/27 01:23:51;;;;;;;3.03;2.60;;;12.20;99.90;;;;;;4936090;29;20044;-68
2023/02/27 01:26:19;;;;;;;4.18;2.55;;;12.30;99.90;;;;;;4920371;29;20071;-69
2023/02/27 01:28:47;;;;;;;2.72;2.50;;;12.30;99.90;;;;;;4920384;29;20403;-70
2023/02/27 01:31:14;;;;;;;4.78;2.60;;;12.40;99.90;;;;;;4904929;29;20051;-71
2023/02/27 01:33:41;;;;;;;6.63;2.75;;;12.30;99.90;;;;;;4936165;29;20044;-73
2023/02/27 01:36:09;;;;;;;3.08;2.78;;;12.30;99.90;;;;;;4935450;29;20047;-74
2023/02/27 01:38:39;;;;;;;3.85;2.70;;;12.30;99.90;;;;;;4953401;29;20054;-70
2023/02/27 01:41:08;;;;;;;4.57;2.80;;;12.10;99.90;;;;;;4922786;29;20048;-73
2023/02/27 01:43:57;;;;;;;4.35;2.70;;;12.10;99.90;;;;;;4935460;29;20069;-70
2023/02/27 01:46:30;;;;;;;3.13;2.45;;;12.20;99.90;;;;;;4903938;29;20058;-70
2023/02/27 01:49:06;;;;;;;3.78;2.65;;;12.20;99.90;;;;;;4931347;29;20046;-72
2023/02/27 01:51:36;;;;;;;4.80;2.70;;;12.20;99.90;;;;;;4919289;29;20134;-72
2023/02/27 01:54:07;;;;;;;4.20;2.70;;;12.10;99.90;;;;;;4950490;29;20431;-70
2023/02/27 01:56:42;;;;;;;3.58;2.60;;;12.10;99.90;;;;;;4919314;29;20476;-71
2023/02/27 01:59:10;;;;;;;2.95;2.40;;;12.00;99.90;;;;;;4921918;29;20399;-70
2023/02/27 02:01:38;;;;;;;3.03;2.50;;;11.90;99.90;;;;;;4921992;29;20407;-72
2023/02/27 02:04:34;;;;;;;2.70;2.47;;;11.80;99.90;;;;;;4921528;29;20046;-70
2023/02/27 02:07:08;;;;;;;3.85;2.80;;;11.90;99.90;;;;;;4913800;29;20058;-73
2023/02/27 02:09:41;;;;;;;3.67;2.70;;;11.80;99.90;;;;;;4954374;29;20385;-75
2023/02/27 02:12:14;;;;;;;4.85;2.83;;;11.80;99.90;;;;;;4954382;29;20059;-72
2023/02/27 02:14:43;;;;;;;5.40;2.63;;;11.70;99.90;;;;;;4921479;29;20131;-71
2023/02/27 02:17:27;;;;;;;4.35;2.78;;;11.70;99.90;;;;;;4930487;29;20058;-73
2023/02/27 02:20:33;;;;;;;5.38;2.90;;;11.50;99.90;;;;;;4921113;29;20043;-74
2023/02/27 02:23:30;;;;;;;6.75;2.80;;;11.40;99.90;;;;;;4913522;29;20075;-70
2023/02/27 02:26:31;;;;;;;4.20;2.97;;;11.30;99.90;;;;;;4920951;29;20052;-71
2023/02/27 02:29:17;;;;;;;;;;;11.40;99.90;;;;;;4954206;28;20080;-72
2023/02/27 02:32:00;;;;;;;5.60;3.28;;;11.60;99.90;;;;;;4941400;29;19933;-70
2023/02/27 02:34:40;;;;;;;5.13;3.30;;;11.70;99.90;;;;;;4920858;29;20035;-69
2023/02/27 02:37:46;;;;;;;8.52;3.30;;;11.60;99.90;;;;;;4922101;29;20129;-69
2023/02/27 02:41:07;;;;;;;5.35;3.35;;;11.60;99.90;;;;;;4935633;29;20059;-71
2023/02/27 02:43:34;;;;;;;;;;;11.40;99.90;;;;;;4912275;29;20063;-72
2023/02/27 02:46:19;;;;;;;6.47;3.50;;;11.50;99.90;;;;;;4911119;29;19927;-74
2023/02/27 02:48:54;;;;;;;5.75;3.45;;;11.50;99.90;;;;;;4918895;29;20060;-72
2023/02/27 02:51:27;;;;;;;5.60;3.47;;;11.40;99.90;;;;;;4917967;29;20050;-71
2023/02/27 02:54:13;;;;;;;7.05;3.72;;;11.20;99.90;;;;;;4948437;29;20047;-70
2023/02/27 02:57:11;;;;;;;7.32;3.90;;;11.00;99.90;;;;;;4921861;29;20055;-73
2023/02/27 03:00:05;;;;;;;6.07;4.10;;;11.10;99.90;;;;;;4936546;29;20062;-73
2023/02/27 03:02:40;;;;;;;5.90;3.58;;;11.10;99.90;;;;;;4915108;29;20058;-70
2023/02/27 03:05:13;;;;;;;7.18;3.70;;;11.10;99.90;;;;;;4931172;29;20051;-70
2023/02/27 03:08:01;;;;;;;5.50;3.10;;;11.10;99.90;;;;;;4936442;29;20043;-71
2023/02/27 03:10:35;;;;;;;4.90;3.00;;;11.10;99.90;;;;;;4936128;29;20112;-70
2023/02/27 03:13:10;;;;;;;6.22;3.40;;;11.10;99.90;;;;;;4953334;29;20395;-73
2023/02/27 03:15:46;;;;;;;8.65;3.20;;;11.20;99.90;;;;;;4917680;29;20043;-72
2023/02/27 03:18:24;;;;;;;4.70;3.35;;;11.30;99.90;;;;;;4948836;29;20044;-73
2023/02/27 03:21:01;;;;;;;5.78;3.42;;;11.30;99.90;;;;;;4917033;29;20059;-73
2023/02/27 03:23:39;;;;;;;5.20;3.40;;;11.30;99.90;;;;;;4952437;29;20055;-69
2023/02/27 03:26:08;;;;;;;4.85;3.45;;;11.10;99.90;;;;;;4916876;29;20055;-70
2023/02/27 03:28:44;;;;;;;6.90;3.77;;;11.10;99.90;;;;;;4917595;29;20043;-74
2023/02/27 03:31:26;;;;;;;6.43;3.75;;;11.10;99.90;;;;;;4916756;29;20150;-70
2023/02/27 03:34:01;;;;;;;9.05;3.45;;;11.20;99.90;;;;;;4917251;29;20526;-69
2023/02/27 03:37:02;;;;;;;5.00;3.10;;;11.10;99.90;;;;;;4939476;29;20435;-70
2023/02/27 03:39:34;;;;;;;;;;;11.10;99.90;;;;;;4914626;29;20036;-73
2023/02/27 03:42:34;;;;;;;4.68;3.08;;;11.20;99.90;;;;;;4915706;29;19931;-71
2023/02/27 03:45:15;;;;;;;5.00;3.42;;;11.10;99.90;;;;;;4924117;29;20054;-69
2023/02/27 03:47:43;;;;;;;9.05;3.78;;;11.10;99.90;;;;;;4923138;29;20052;-72
2023/02/27 03:50:11;;;;;;;4.78;3.50;;;11.10;99.90;;;;;;4917169;29;20051;-73
2023/02/27 03:52:41;;;;;;;4.55;3.42;;;10.90;99.90;;;;;;4913854;29;20044;-70
2023/02/27 03:55:22;;;;;;;7.43;3.53;;;10.90;99.90;;;;;;4924995;29;20048;-70
2023/02/27 03:57:51;;;;;;;7.32;3.78;;;10.90;99.90;;;;;;4920931;29;20054;-69
2023/02/27 04:00:22;;;;;;;6.28;3.50;;;10.90;99.90;;;;;;4916181;29;20151;-69
2023/02/27 04:02:53;;;;;;;7.32;3.58;;;10.90;99.90;;;;;;4933298;29;20476;-70
2023/02/27 04:05:21;;;;;;;5.82;3.97;;;10.70;99.90;;;;;;4916516;29;20561;-67
2023/02/27 04:08:19;;;;;;;7.88;4.13;;;10.40;99.90;;;;;;4916983;29;20130;-73
2023/02/27 04:11:05;;;;;;;7.03;4.85;;;10.20;99.90;;;;;;4922223;29;20043;-73
2023/02/27 04:13:47;;;;;;;8.55;5.45;;;10.30;99.90;;;;;;4916214;29;20071;-71
2023/02/27 04:16:15;;;;;;;5.82;4.63;;;9.90;99.90;;;;;;4916594;29;20047;-71
2023/02/27 04:19:20;;;;;;;8.40;5.38;;;10.00;99.90;;;;;;4920271;29;20407;-74
2023/02/27 04:21:47;;;;;;;7.13;4.30;;;9.60;99.90;;;;;;4927018;29;20135;-69
2023/02/27 04:24:46;;;;;;;6.68;4.82;;;9.60;99.90;;;;;;4925794;29;20055;-74
2023/02/27 04:27:37;;;;;;;7.30;5.10;;;9.30;99.90;;;;;;4897510;29;20060;-74
2023/02/27 04:30:13;;;;;;;;;;;9.30;99.90;;;;;;4903197;29;20048;-72
2023/02/27 04:32:54;;;;;;;6.57;5.00;;;9.30;99.90;;;;;;4912707;29;19927;-70
2023/02/27 04:35:38;;;;;;;6.32;5.20;;;9.40;99.90;;;;;;4914510;29;20041;-73
2023/02/27 04:38:32;;;;;;;12.25;6.10;;;9.30;99.90;;;;;;4928518;29;20048;-74
2023/02/27 04:41:15;;;;;;;6.97;6.20;;;9.10;99.90;;;;;;4901666;29;20044;-70
2023/02/27 04:43:44;;;;;;;11.48;6.90;;;8.90;99.90;;;;;;4913076;29;20484;-69
2023/02/27 04:46:15;;;;;;;7.93;6.35;;;8.80;99.90;;;;;;4914337;29;20068;-73
2023/02/27 04:48:58;;;;;;;11.35;7.65;;;8.70;99.90;;;;;;4914132;29;20373;-74
2023/02/27 04:51:34;;;;;;;11.15;7.43;;;8.60;99.90;;;;;;4914057;29;20040;-70
2023/02/27 04:54:13;;;;;;;10.52;7.25;;;8.60;99.90;;;;;;4915298;29;20396;-74
2023/02/27 04:56:50;;;;;;;10.07;7.70;;;8.50;99.90;;;;;;4917048;29;20143;-70
2023/02/27 05:00:00;;;;;;;12.35;8.18;;;8.40;99.90;;;;;;4915972;29;20060;-75
2023/02/27 05:02:32;;;;;;;10.02;7.65;;;8.40;99.90;;;;;;4891773;29;20437;-71
2023/02/27 05:05:06;;;;;;;11.00;7.78;;;8.40;99.90;;;;;;4916763;29;20044;-70
2023/02/27 05:07:41;;;;;;;13.85;8.32;;;8.30;99.90;;;;;;4916359;29;20052;-74
2023/02/27 05:10:19;;;;;;;11.10;7.93;;;8.20;99.90;;;;;;4916318;29;20052;-71
2023/02/27 05:12:54;;;;;;;10.20;7.18;;;8.30;99.90;;;;;;4917103;29;20048;-74
2023/02/27 05:15:50;;;;;;;9.07;7.40;;;8.20;99.90;;;;;;4917143;29;20044;-74
2023/02/27 05:18:21;;;;;;;13.85;8.43;;;8.00;99.90;;;;;;4916254;29;20044;-72
2023/02/27 05:21:08;;;;;;;9.75;7.10;;;7.80;99.90;;;;;;4916349;29;20048;-70
2023/02/27 05:24:00;;;;;;;11.88;8.02;;;7.80;99.90;;;;;;4916404;29;20048;-71
2023/02/27 05:27:08;;;;;;;14.57;6.95;;;7.80;99.90;;;;;;4948392;29;20431;-72
2023/02/27 05:29:52;;;;;;;8.75;6.90;;;7.80;99.90;;;;;;4894705;29;20056;-69
2023/02/27 05:32:40;;;;;;;10.38;8.13;;;7.70;99.90;;;;;;4864680;29;20478;-70
2023/02/27 05:35:16;;;;;;;7.85;6.43;;;7.80;99.90;;;;;;4912092;29;20058;-73
2023/02/27 05:38:02;;;;;;;10.18;7.53;;;7.80;99.90;;;;;;4935163;29;20480;-70
2023/02/27 05:40:47;;;;;;;10.77;7.18;;;7.90;99.90;;;;;;4952654;29;20462;-72
2023/02/27 05:43:20;;;;;;;9.48;7.13;;;7.80;99.90;;;;;;4954162;29;20031;-69
2023/02/27 05:45:50;;;;;;;12.48;6.82;;;7.80;99.90;;;;;;4953229;29;20047;-70
2023/02/27 05:48:24;;;;;;;8.10;6.72;;;7.80;99.90;;;;;;4920997;29;20043;-72
2023/02/27 05:50:52;;;;;;;9.15;6.85;;;7.80;99.90;;;;;;4946878;29;20047;-75
2023/02/27 05:53:23;;;;;;;8.90;6.90;;;7.80;99.90;;;;;;4935623;29;20046;-74
2023/02/27 05:55:53;;;;;;;7.63;6.18;;;7.80;99.90;;;;;;4939276;29;20073;-73
2023/02/27 05:58:26;;;;;;;11.18;6.97;;;7.80;99.90;;;;;;4937183;29;20101;-71
2023/02/27 06:00:59;;;;;;;13.07;6.45;;;7.80;99.90;;;;;;4916091;29;20400;-74
2023/02/27 06:03:28;;;;;;;10.27;7.25;;;7.60;99.90;;;;;;4946816;28;20046;-72
2023/02/27 06:05:58;;;;;;;41.58;21.45;;;7.80;99.90;;;;;;4931292;29;20047;-76
2023/02/27 06:08:26;;;;;;;21.27;13.57;;;8.20;99.90;;;;;;4918887;29;20047;-69
2023/02/27 06:10:54;;;;;;;9.40;7.57;;;8.10;99.90;;;;;;4924925;29;20043;-73
2023/02/27 06:13:22;;;;;;;11.55;6.60;;;7.90;99.90;;;;;;4932591;29;20035;-72
2023/02/27 06:15:49;;;;;;;11.55;7.00;;;7.80;99.90;;;;;;4951376;29;20039;-71
2023/02/27 06:18:20;;;;;;;9.18;6.25;;;7.70;99.90;;;;;;4950906;29;20036;-72
2023/02/27 06:20:47;;;;;;;;;;;7.50;99.90;;;;;;4933195;29;20035;-70
2023/02/27 06:23:16;;;;;;;8.00;6.63;;;7.40;99.90;;;;;;4946470;29;20525;-72
2023/02/27 06:25:43;;;;;;;9.02;5.90;;;7.60;99.90;;;;;;4933401;29;20083;-70
2023/02/27 06:28:14;;;;;;;10.07;6.43;;;7.60;99.90;;;;;;4933676;29;20444;-71
2023/02/27 06:30:44;;;;;;;;;;;7.60;99.90;;;;;;4907471;29;20110;-70
2023/02/27 06:33:14;;;;;;;9.02;6.18;;;7.60;99.90;;;;;;4917991;29;20326;-73
2023/02/27 06:35:46;;;;;;;10.25;7.00;;;7.60;99.90;;;;;;4921869;29;20047;-70
2023/02/27 06:38:14;;;;;;;8.25;6.30;;;7.70;99.90;;;;;;4930325;29;20046;-74
2023/02/27 06:40:41;;;;;;;11.27;7.25;;;7.60;99.90;;;;;;4947156;29;20429;-72
2023/02/27 06:43:09;;;;;;;10.60;7.65;;;7.70;99.90;;;;;;4921102;29;20376;-73
2023/02/27 06:45:39;;;;;;;9.15;6.85;;;7.60;99.90;;;;;;4941859;29;20038;-74
2023/02/27 06:48:06;;;;;;;15.05;7.00;;;7.60;99.90;;;;;;4920892;29;20039;-73
2023/02/27 06:50:33;;;;;;;10.10;7.78;;;7.70;99.90;;;;;;4952334;29;20046;-71
2023/02/27 06:53:02;;;;;;;41.08;23.02;;;7.80;99.90;;;;;;4953445;29;20047;-71
2023/02/27 06:55:29;;;;;;;10.60;8.00;;;7.80;99.90;;;;;;4924726;29;20388;-71
2023/02/27 06:57:57;;;;;;;12.23;7.75;;;7.80;99.90;;;;;;4936401;29;20051;-71
2023/02/27 07:00:24;;;;;;;16.23;7.80;;;7.90;99.90;;;;;;4937739;29;20027;-72
2023/02/27 07:02:51;;;;;;;12.60;8.00;;;8.10;99.90;;;;;;4920558;29;20056;-70
2023/02/27 07:05:19;;;;;;;10.60;6.80;;;8.40;99.90;;;;;;4926483;29;20051;-72
2023/02/27 07:08:04;;;;;;;11.40;7.28;;;8.50;99.90;;;;;;4942718;29;20154;-70
2023/02/27 07:10:31;;;;;;;12.05;7.60;;;8.20;99.90;;;;;;4928626;29;20032;-70
2023/02/27 07:12:59;;;;;;;10.35;7.05;;;8.40;99.90;;;;;;4942910;29;20054;-70
2023/02/27 07:15:26;;;;;;;11.20;7.18;;;8.40;99.90;;;;;;4937152;28;20059;-70
2023/02/27 07:17:53;;;;;;;9.80;7.10;;;8.40;99.90;;;;;;4914398;29;20504;-71
2023/02/27 07:20:20;;;;;;;13.32;6.40;;;8.40;99.90;;;;;;4951778;29;20046;-71
2023/02/27 07:22:48;;;;;;;11.73;7.40;;;8.80;99.90;;;;;;4921122;29;20043;-71
2023/02/27 07:25:15;;;;;;;12.65;7.47;;;9.00;99.90;;;;;;4937092;29;20115;-70
2023/02/27 07:27:44;;;;;;;10.98;7.13;;;8.90;99.90;;;;;;4928025;29;20424;-69
2023/02/27 07:30:12;;;;;;;10.50;7.10;;;8.90;99.90;;;;;;4936027;29;20058;-70
2023/02/27 07:32:39;;;;;;;8.95;6.68;;;8.90;99.90;;;;;;4950535;29;20055;-70
2023/02/27 07:35:07;;;;;;;11.65;7.07;;;9.00;99.90;;;;;;4940364;29;20395;-71
2023/02/27 07:37:35;;;;;;;8.90;6.95;;;9.30;99.90;;;;;;4952885;29;20050;-70
2023/02/27 07:40:02;;;;;;;11.40;7.10;;;9.30;99.90;;;;;;4953196;29;20388;-71
2023/02/27 07:42:31;;;;;;;9.88;7.28;;;9.40;99.90;;;;;;4953018;29;20050;-70
2023/02/27 07:44:59;;;;;;;12.88;7.60;;;9.50;99.90;;;;;;4922482;29;20050;-70
2023/02/27 07:47:29;;;;;;;14.07;7.80;;;9.60;99.90;;;;;;4916552;29;20044;-71
2023/02/27 07:49:56;;;;;;;13.43;7.70;;;9.70;99.90;;;;;;4933064;29;20043;-71
2023/02/27 07:52:24;;;;;;;11.93;8.38;;;10.00;99.90;;;;;;4916883;29;20059;-69
2023/02/27 07:54:51;;;;;;;15.13;8.20;;;10.10;99.90;;;;;;4933935;29;20043;-71
2023/02/27 07:57:18;;;;;;;11.95;8.02;;;10.20;99.90;;;;;;4932045;29;20050;-71
2023/02/27 07:59:47;;;;;;;11.30;7.65;;;10.20;99.90;;;;;;4952325;29;20053;-69
2023/02/27 08:02:14;;;;;;;12.45;7.55;;;10.20;99.90;;;;;;4934836;29;20134;-70
2023/02/27 08:04:41;;;;;;;12.75;7.53;;;10.40;99.90;;;;;;4935443;29;20047;-71
2023/02/27 08:07:09;;;;;;;11.50;7.60;;;10.60;99.90;;;;;;4952172;29;20098;-71
2023/02/27 08:09:36;;;;;;;9.18;6.93;;;10.70;99.90;;;;;;4935194;29;20483;-70
2023/02/27 08:12:03;;;;;;;16.08;6.70;;;10.80;99.90;;;;;;4952429;29;20043;-71
2023/02/27 08:14:31;;;;;;;11.45;6.50;;;11.00;99.90;;;;;;4952390;29;20054;-71
2023/02/27 08:16:59;;;;;;;13.85;7.28;;;11.20;99.90;;;;;;4930806;29;20401;-71
2023/02/27 08:19:26;;;;;;;12.70;7.32;;;11.20;99.90;;;;;;4934246;29;20070;-71
2023/02/27 08:21:54;;;;;;;13.43;6.50;;;11.10;99.90;;;;;;4934701;29;20048;-71
2023/02/27 08:24:21;;;;;;;12.40;6.78;;;11.10;99.90;;;;;;4932388;29;20417;-70
2023/02/27 08:26:49;;;;;;;12.15;6.57;;;11.00;99.90;;;;;;4934871;29;20060;-69
2023/02/27 08:29:16;;;;;;;9.65;6.78;;;11.10;99.90;;;;;;4933179;29;20071;-72
2023/02/27 08:32:01;;;;;;;12.65;6.47;;;11.00;99.90;;;;;;4910713;29;20036;-70
2023/02/27 08:34:29;;;;;;;13.27;7.20;;;10.90;99.90;;;;;;4938095;29;20039;-70
2023/02/27 08:36:56;;;;;;;10.35;6.65;;;10.90;99.90;;;;;;4924414;29;20052;-70
2023/02/27 08:39:23;;;;;;;11.95;7.20;;;11.10;99.90;;;;;;4952780;29;20124;-71
2023/02/27 08:41:51;;;;;;;14.77;7.45;;;11.20;99.90;;;;;;4924936;29;20044;-72
2023/02/27 08:44:19;;;;;;;13.07;6.28;;;11.60;99.90;;;;;;4942277;29;20035;-71
2023/02/27 08:46:47;;;;;;;11.82;6.32;;;11.70;99.90;;;;;;4942451;29;20059;-71
2023/02/27 08:49:14;;;;;;;11.32;6.30;;;11.80;99.90;;;;;;4941685;29;20040;-70
2023/02/27 08:51:41;;;;;;;9.40;6.22;;;11.80;99.90;;;;;;4939927;29;20050;-71
2023/02/27 08:54:09;;;;;;;11.20;6.07;;;11.90;99.90;;;;;;4935830;29;20114;-71
2023/02/27 08:56:36;;;;;;;10.68;6.38;;;12.10;99.90;;;;;;4938589;29;20066;-70
2023/02/27 08:59:03;;;;;;;10.25;6.05;;;12.40;99.90;;;;;;4938087;29;20506;-71
2023/02/27 09:01:33;;;;;;;11.88;6.95;;;12.70;99.90;;;;;;4922672;29;20047;-70
2023/02/27 09:04:02;;;;;;;9.82;6.63;;;12.60;99.90;;;;;;4925296;29;20483;-71
2023/02/27 09:06:31;;;;;;;10.75;6.68;;;12.70;99.90;;;;;;4954955;29;20051;-69
2023/02/27 09:09:00;;;;;;;13.38;6.38;;;12.80;99.90;;;;;;4951594;29;20467;-70
2023/02/27 09:11:27;;;;;;;8.10;5.55;;;12.60;99.90;;;;;;4933878;29;20044;-70
2023/02/27 09:13:56;;;;;;;9.30;6.45;;;12.90;99.90;;;;;;4921663;29;20546;-69
2023/02/27 09:16:23;;;;;;;9.23;5.90;;;13.10;99.90;;;;;;4936890;29;20042;-71
2023/02/27 09:19:08;;;;;;;15.95;7.28;;;13.20;99.90;;;;;;4935454;29;20040;-72
2023/02/27 09:21:36;;;;;;;17.35;7.95;;;13.70;99.90;;;;;;4921730;29;20039;-73
2023/02/27 09:24:04;;;;;;;10.50;5.72;;;14.10;99.90;;;;;;4943697;29;20141;-71
2023/02/27 09:26:45;;;;;;;9.45;6.40;;;14.50;99.90;;;;;;4949458;29;20066;-70
2023/02/27 09:29:54;;;;;;;9.60;6.68;;;14.40;99.90;;;;;;4949152;29;20042;-71
2023/02/27 09:32:22;;;;;;;10.77;6.63;;;14.20;99.90;;;;;;4954373;29;20047;-71
2023/02/27 09:34:50;;;;;;;10.48;6.43;;;14.30;99.90;;;;;;4917937;29;20062;-72
2023/02/27 09:37:18;;;;;;;9.10;6.07;;;14.40;99.90;;;;;;4951027;29;20036;-70
2023/02/27 09:39:45;;;;;;;9.18;6.05;;;14.40;99.90;;;;;;4918174;29;20413;-72
2023/02/27 09:42:25;;;;;;;8.20;5.75;;;14.20;99.90;;;;;;4933792;29;20467;-69
2023/02/27 09:44:56;;;;;;;10.40;6.60;;;14.20;99.90;;;;;;4930930;29;20043;-69
2023/02/27 09:47:40;;;;;;;10.55;6.53;;;14.10;99.90;;;;;;4921499;29;20153;-68
2023/02/27 09:50:40;;;;;;;9.88;5.60;;;14.50;99.90;;;;;;4935639;29;20042;-70
2023/02/27 09:53:34;;;;;;;9.75;6.85;;;14.60;99.90;;;;;;4924690;29;20055;-71
2023/02/27 09:56:07;;;;;;;9.77;6.53;;;14.80;99.90;;;;;;4939285;29;20039;-70
2023/02/27 09:58:46;;;;;;;12.35;8.02;;;15.20;99.90;;;;;;4943008;29;20039;-70
2023/02/27 10:01:25;;;;;;;13.90;8.15;;;15.40;99.90;;;;;;4921275;29;20052;-71
2023/02/27 10:04:11;;;;;;;10.95;7.13;;;15.50;99.90;;;;;;4948616;29;20039;-68
2023/02/27 10:06:48;;;;;;;10.43;6.32;;;15.50;99.90;;;;;;4949246;29;20042;-70
2023/02/27 10:09:31;;;;;;;10.07;6.05;;;15.50;99.90;;;;;;4949104;29;20054;-71
2023/02/27 10:12:22;;;;;;;9.13;5.72;;;15.50;99.90;;;;;;4941285;29;20070;-71
2023/02/27 10:14:56;;;;;;;9.25;5.57;;;15.60;99.90;;;;;;4933432;29;20233;-69
2023/02/27 10:17:27;;;;;;;13.73;7.10;;;15.70;99.90;;;;;;4938367;29;20090;-72
2023/02/27 10:19:56;;;;;;;16.27;7.68;;;15.90;99.90;;;;;;4949346;29;20051;-68
2023/02/27 10:22:39;;;;;;;11.30;6.57;;;15.90;99.90;;;;;;4933942;29;20045;-68
2023/02/27 10:25:14;;;;;;;10.82;6.07;;;15.80;99.90;;;;;;4946076;29;20071;-70
2023/02/27 10:28:07;;;;;;;11.85;6.07;;;15.80;99.90;;;;;;4949164;29;20050;-71
2023/02/27 10:30:35;;;;;;;9.80;6.35;;;15.60;99.90;;;;;;4930935;29;20047;-69
2023/02/27 10:33:26;;;;;;;11.45;6.30;;;15.50;99.90;;;;;;4933336;29;20058;-69
2023/02/27 10:35:54;;;;;;;12.77;6.13;;;15.10;99.90;;;;;;4935524;29;20051;-70
2023/02/27 10:38:32;;;;;;;11.32;6.35;;;14.70;99.90;;;;;;4951407;29;20039;-71
2023/02/27 10:41:01;;;;;;;10.50;6.55;;;14.50;99.90;;;;;;4946592;29;20035;-70
2023/02/27 10:43:28;;;;;;;11.18;6.95;;;14.60;99.90;;;;;;4931877;29;20143;-72
2023/02/27 10:46:00;;;;;;;13.32;6.63;;;14.90;99.90;;;;;;4949038;29;20385;-72
2023/02/27 10:48:28;;;;;;;13.77;6.60;;;15.20;99.90;;;;;;4939395;29;20084;-73
2023/02/27 10:51:26;;;;;;;12.05;6.68;;;15.50;99.90;;;;;;4947981;29;20058;-71
2023/02/27 10:54:30;;;;;;;15.05;6.70;;;16.00;99.90;;;;;;4950428;29;20489;-69
2023/02/27 10:57:00;;;;;;;32.53;7.50;;;17.00;99.90;;;;;;4863638;29;20767;-72
2023/02/27 10:59:37;;;;;;;38.85;7.43;;;17.70;98.90;;;;;;4932046;28;20063;-72
2023/02/27 11:02:34;;;;;;;20.38;6.78;;;18.60;98.00;;;;;;4947096;29;20049;-72
2023/02/27 11:05:02;;;;;;;22.30;5.97;;;19.00;95.50;;;;;;4947508;29;20058;-69
2023/02/27 11:07:36;;;;;;;18.15;7.82;;;19.00;94.20;;;;;;4945214;29;20058;-69
2023/02/27 11:10:26;;;;;;;14.60;8.90;;;19.10;92.40;;;;;;4949561;29;20071;-69
2023/02/27 11:13:17;;;;;;;13.20;6.38;;;21.20;87.00;;;;;;4921658;29;20553;-71
2023/02/27 11:16:22;;;;;;;11.52;5.80;;;22.90;76.30;;;;;;4948879;29;20108;-69
2023/02/27 11:18:53;;;;;;;11.27;5.63;;;22.40;72.00;;;;;;4900828;29;20051;-71
2023/02/27 11:21:26;;;;;;;12.80;5.03;;;20.20;80.20;;;;;;4940158;29;20047;-71
2023/02/27 11:24:00;;;;;;;15.13;9.68;;;19.30;83.80;;;;;;4947246;29;20690;-72
2023/02/27 11:26:39;;;;;;;14.48;7.30;;;18.00;87.90;;;;;;4947325;29;20047;-70
2023/02/27 11:29:16;;;;;;;14.68;6.25;;;17.40;91.10;;;;;;4931803;29;20421;-69
2023/02/27 11:31:47;;;;;;;9.75;5.60;;;16.90;92.10;;;;;;4919424;29;20498;-71
2023/02/27 11:34:38;;;;;;;13.25;5.78;;;17.00;92.50;;;;;;4914151;29;20040;-70
2023/02/27 11:37:34;;;;;;;10.55;5.53;;;17.10;93.50;;;;;;4946794;29;20036;-73
2023/02/27 11:40:13;;;;;;;18.73;6.40;;;16.70;94.80;;;;;;4949908;29;20043;-71
2023/02/27 11:42:48;;;;;;;13.87;6.40;;;16.70;94.70;;;;;;4932062;29;20368;-71
2023/02/27 11:45:38;;;;;;;8.95;6.07;;;16.20;95.80;;;;;;4950253;29;20047;-70
2023/02/27 11:48:28;;;;;;;16.98;6.50;;;16.10;97.10;;;;;;4913606;29;20504;-73
2023/02/27 11:51:04;;;;;;;11.77;5.85;;;16.10;97.10;;;;;;4917182;29;20082;-71
2023/02/27 11:53:53;;;;;;;17.15;6.15;;;16.00;98.20;;;;;;4932853;29;20075;-70
2023/02/27 11:56:33;;;;;;;16.45;7.10;;;16.20;98.20;;;;;;4934526;29;20062;-71
2023/02/27 11:59:30;;;;;;;9.95;5.55;;;16.10;98.30;;;;;;4916687;29;20577;-71
2023/02/27 12:02:30;;;;;;;11.02;5.13;;;15.90;98.00;;;;;;4932017;29;20597;-72
2023/02/27 12:05:00;;;;;;;10.05;4.88;;;16.00;98.30;;;;;;4913103;29;20046;-74
2023/02/27 12:07:36;;;;;;;10.18;5.45;;;16.70;97.20;;;;;;4918971;29;20055;-72
2023/02/27 12:10:03;;;;;;;10.48;5.22;;;17.30;96.00;;;;;;4918932;29;20219;-72
2023/02/27 12:12:55;;;;;;;11.55;5.45;;;17.60;95.20;;;;;;4918873;29;20146;-72
2023/02/27 12:15:34;;;;;;;10.93;5.25;;;17.90;94.50;;;;;;4919159;29;20047;-71
2023/02/27 12:18:05;;;;;;;9.25;4.88;;;18.20;93.60;;;;;;4916789;29;20055;-72
2023/02/27 12:20:45;;;;;;;12.38;4.88;;;18.00;93.30;;;;;;4915691;29;20130;-69
2023/02/27 12:23:48;;;;;;;10.73;6.10;;;18.00;94.10;;;;;;4946016;29;20503;-70
2023/02/27 12:26:39;;;;;;;10.45;6.13;;;18.80;93.00;;;;;;4904478;29;20286;-73
2023/02/27 12:29:29;;;;;;;11.02;6.50;;;18.40;92.60;;;;;;4916747;29;20055;-72
2023/02/27 12:32:10;;;;;;;10.95;5.68;;;19.10;92.00;;;;;;4914402;29;20071;-75
2023/02/27 12:34:46;;;;;;;9.25;5.15;;;20.40;87.20;;;;;;4917949;29;20050;-72
2023/02/27 12:37:23;;;;;;;11.35;5.68;;;20.70;82.80;;;;;;4916980;29;20050;-72
2023/02/27 12:39:54;;;;;;;12.70;6.38;;;19.50;85.10;;;;;;4916603;29;20435;-73
2023/02/27 12:42:35;;;;;;;9.40;5.43;;;18.50;90.00;;;;;;4933340;29;20047;-72
2023/02/27 12:45:08;;;;;;;7.72;5.25;;;17.60;92.30;;;;;;4912766;29;20077;-71
2023/02/27 12:48:04;;;;;;;8.50;5.30;;;17.30;92.90;;;;;;4930849;29;20182;-71
2023/02/27 12:51:30;;;;;;;9.43;5.30;;;18.00;92.50;;;;;;4915594;29;20093;-73
2023/02/27 12:54:34;;;;;;;11.57;4.85;;;18.40;91.30;;;;;;4902387;29;20051;-70
2023/02/27 12:57:33;;;;;;;14.43;7.40;;;17.50;91.90;;;;;;4933142;29;20048;-70
2023/02/27 13:00:17;;;;;;;14.98;8.15;;;16.20;93.30;;;;;;4922507;29;20074;-72
2023/02/27 13:03:13;;;;;;;14.57;8.73;;;14.90;94.60;;;;;;4917998;29;20099;-73
2023/02/27 13:05:58;;;;;;;13.75;8.30;;;14.30;96.60;;;;;;4880847;29;20071;-73
2023/02/27 13:09:20;;;;;;;15.85;8.15;;;14.40;97.20;;;;;;4920027;29;20089;-73
2023/02/27 13:12:22;;;;;;;17.67;8.68;;;14.10;97.40;;;;;;4890709;29;20637;-72
2023/02/27 13:15:03;;;;;;;14.02;8.80;;;13.60;99.20;;;;;;4930728;29;20133;-71
2023/02/27 13:17:44;;;;;;;12.55;8.32;;;13.60;99.90;;;;;;4893789;29;20047;-71
2023/02/27 13:20:20;;;;;;;16.52;8.80;;;13.40;99.90;;;;;;4929624;29;20079;-70
2023/02/27 13:22:56;;;;;;;16.13;9.57;;;13.40;99.90;;;;;;4944542;29;20049;-72
2023/02/27 13:25:29;;;;;;;23.05;9.10;;;13.40;99.90;;;;;;4934780;29;20051;-71
2023/02/27 13:28:05;;;;;;;15.55;8.65;;;13.30;99.90;;;;;;4951958;29;20126;-73
2023/02/27 13:30:38;;;;;;;12.80;8.27;;;13.60;99.90;;;;;;4933252;29;20035;-72
2023/02/27 13:33:29;;;;;;;14.43;8.57;;;13.20;99.90;;;;;;4952780;29;20047;-74